Time;durP1;ratioP1;P1;durP2;ratioP2;P2;SDS_P1;SDS_P2;PMS_P1;PMS_P2;Temp;Humidity;BMP_temperature;BMP_pressure;BME280_temperature;BME280_humidity;BME280_pressure;Samples;Min_cycle;Max_cycle;Signal;HPM_P1;HPM_P2
2022/04/09 00:00:28;;;;;;;12.05;1.10;;;5.90;99.90;;;;;;5088533;28;20098;-37
2022/04/09 00:02:53;;;;;;;13.93;1.83;;;5.90;99.90;;;;;;5093580;28;20021;-38
2022/04/09 00:05:19;;;;;;;13.60;2.28;;;5.90;99.90;;;;;;5093876;28;20017;-47
2022/04/09 00:07:45;;;;;;;8.30;1.52;;;5.80;99.90;;;;;;5092472;28;20099;-32
2022/04/09 00:10:12;;;;;;;9.57;1.45;;;5.80;99.90;;;;;;5093258;28;20507;-37
2022/04/09 00:12:38;;;;;;;8.18;1.15;;;5.90;99.90;;;;;;5092658;28;20035;-37
2022/04/09 00:15:05;;;;;;;3.53;1.17;;;5.80;99.90;;;;;;5091865;28;20016;-38
2022/04/09 00:17:41;;;;;;;8.03;0.83;;;5.80;99.90;;;;;;5093282;28;20063;-38
2022/04/09 00:20:09;;;;;;;18.65;1.73;;;5.80;99.90;;;;;;5092967;28;20646;-38
2022/04/09 00:22:36;;;;;;;6.87;1.30;;;5.80;99.90;;;;;;5091326;28;20028;-46
2022/04/09 00:25:04;;;;;;;7.85;1.30;;;5.90;99.90;;;;;;5092812;28;20115;-37
2022/04/09 00:27:30;;;;;;;17.65;2.13;;;5.80;99.90;;;;;;5094065;28;20472;-39
2022/04/09 00:29:55;;;;;;;14.32;1.17;;;5.90;99.90;;;;;;5092711;28;20024;-37
2022/04/09 00:32:21;;;;;;;6.93;1.10;;;5.90;99.90;;;;;;5091739;28;20024;-36
2022/04/09 00:34:47;;;;;;;9.88;1.83;;;5.90;99.90;;;;;;5093510;28;20048;-37
2022/04/09 00:37:12;;;;;;;9.70;1.35;;;5.90;99.90;;;;;;5091653;28;20032;-36
2022/04/09 00:39:38;;;;;;;7.57;1.98;;;5.90;99.90;;;;;;5091400;28;20024;-37
2022/04/09 00:42:04;;;;;;;7.85;0.80;;;5.90;99.90;;;;;;5093519;28;20032;-36
2022/04/09 00:44:31;;;;;;;3.10;1.15;;;5.90;99.90;;;;;;5092734;28;20514;-36
2022/04/09 00:46:57;;;;;;;9.05;1.63;;;5.80;99.90;;;;;;5092769;28;20027;-37
2022/04/09 00:49:24;;;;;;;19.25;1.58;;;5.80;99.90;;;;;;5092729;28;20028;-37
2022/04/09 00:51:51;;;;;;;12.35;1.52;;;5.80;99.90;;;;;;5093697;28;20031;-37
2022/04/09 00:54:20;;;;;;;8.55;1.42;;;5.80;99.90;;;;;;5092550;28;20103;-35
2022/04/09 00:56:48;;;;;;;10.18;1.63;;;5.80;99.90;;;;;;5092135;28;20379;-36
2022/04/09 00:59:16;;;;;;;3.65;0.95;;;5.90;99.90;;;;;;5092854;28;20047;-37
2022/04/09 01:01:42;;;;;;;3.97;1.15;;;5.80;99.90;;;;;;5092117;28;20031;-36
2022/04/09 01:04:09;;;;;;;16.15;1.30;;;5.80;99.90;;;;;;5091337;28;20016;-36
2022/04/09 01:06:35;;;;;;;14.93;2.15;;;5.80;99.90;;;;;;5091899;28;20028;-37
2022/04/09 01:09:02;;;;;;;8.00;1.02;;;5.80;99.90;;;;;;5092362;28;20078;-36
2022/04/09 01:11:28;;;;;;;9.40;1.60;;;5.80;99.90;;;;;;5092740;28;20024;-49
2022/04/09 01:13:53;;;;;;;9.88;1.33;;;5.80;99.90;;;;;;5091298;28;20098;-36
2022/04/09 01:16:19;;;;;;;12.88;3.60;;;5.80;99.90;;;;;;5091241;28;20040;-38
2022/04/09 01:18:45;;;;;;;7.22;1.83;;;5.90;99.90;;;;;;5091774;28;20040;-37
2022/04/09 01:21:10;;;;;;;9.23;1.35;;;6.00;99.90;;;;;;5091511;28;20032;-39
2022/04/09 01:23:36;;;;;;;10.60;1.70;;;6.00;99.90;;;;;;5092575;28;20024;-32
2022/04/09 01:26:04;;;;;;;22.77;1.67;;;6.10;99.90;;;;;;5090980;28;20051;-36
2022/04/09 01:28:31;;;;;;;6.10;1.23;;;6.10;99.90;;;;;;5091945;28;20032;-36
2022/04/09 01:30:56;;;;;;;9.32;1.63;;;6.10;99.90;;;;;;5074320;28;20028;-38
2022/04/09 01:33:22;;;;;;;9.60;1.25;;;6.10;99.90;;;;;;5091029;28;20436;-36
2022/04/09 01:35:49;;;;;;;13.95;1.63;;;6.10;99.90;;;;;;5091468;28;20024;-36
2022/04/09 01:38:15;;;;;;;5.65;1.63;;;6.00;99.90;;;;;;5090957;28;20032;-37
2022/04/09 01:40:41;;;;;;;6.82;1.50;;;6.10;99.90;;;;;;5092890;28;20379;-36
2022/04/09 01:43:07;;;;;;;13.55;1.42;;;6.10;99.90;;;;;;5092737;28;20476;-36
2022/04/09 01:45:34;;;;;;;16.42;2.10;;;6.10;99.90;;;;;;5092074;28;20036;-36
2022/04/09 01:48:00;;;;;;;12.32;0.98;;;6.10;99.90;;;;;;5092118;28;20481;-37
2022/04/09 01:50:26;;;;;;;12.60;1.25;;;6.10;99.90;;;;;;5096259;28;20052;-37
2022/04/09 01:52:53;;;;;;;5.55;1.25;;;6.10;99.90;;;;;;5095210;28;20020;-38
2022/04/09 01:55:19;;;;;;;10.25;1.42;;;6.10;99.90;;;;;;5095079;28;20085;-38
2022/04/09 01:57:46;;;;;;;8.05;1.58;;;6.10;99.90;;;;;;5094662;28;20480;-39
2022/04/09 02:00:12;;;;;;;8.93;1.80;;;6.10;99.90;;;;;;5096713;28;20430;-38
2022/04/09 02:02:38;;;;;;;13.90;1.58;;;6.10;99.90;;;;;;5095477;28;20101;-36
2022/04/09 02:05:05;;;;;;;8.18;1.50;;;6.00;99.90;;;;;;5094414;28;20021;-36
2022/04/09 02:07:30;;;;;;;19.10;2.05;;;6.00;99.90;;;;;;5095443;28;20024;-44
2022/04/09 02:09:56;;;;;;;5.32;1.08;;;6.00;99.90;;;;;;5095851;28;20031;-36
2022/04/09 02:12:21;;;;;;;12.38;1.67;;;6.00;99.90;;;;;;5095123;28;20494;-37
2022/04/09 02:14:47;;;;;;;10.18;1.80;;;5.90;99.90;;;;;;5094296;28;20363;-35
2022/04/09 02:17:13;;;;;;;2.58;0.43;;;5.70;99.90;;;;;;5093177;28;20498;-36
2022/04/09 02:19:39;;;;;;;4.07;0.55;;;5.50;99.90;;;;;;5095339;28;20040;-36
2022/04/09 02:22:05;;;;;;;3.88;0.70;;;5.40;99.90;;;;;;5095260;28;20032;-35
2022/04/09 02:24:31;;;;;;;5.72;0.57;;;5.30;99.90;;;;;;5096408;28;20490;-37
2022/04/09 02:26:57;;;;;;;4.72;0.50;;;5.20;99.90;;;;;;5095013;28;20028;-37
2022/04/09 02:29:22;;;;;;;1.58;0.47;;;5.20;99.90;;;;;;5096078;28;20103;-36
2022/04/09 02:31:48;;;;;;;0.88;0.40;;;5.20;99.90;;;;;;5094185;28;20491;-36
2022/04/09 02:34:14;;;;;;;3.20;0.77;;;5.20;99.90;;;;;;5094788;28;20024;-36
2022/04/09 02:36:40;;;;;;;2.03;0.60;;;5.20;99.90;;;;;;5092421;28;20035;-36
2022/04/09 02:39:06;;;;;;;4.32;0.77;;;5.30;99.90;;;;;;5095040;28;20024;-37
2022/04/09 02:41:32;;;;;;;2.08;0.52;;;5.30;99.90;;;;;;5096113;28;20066;-38
2022/04/09 02:43:58;;;;;;;4.53;0.70;;;5.30;99.90;;;;;;5095756;28;20020;-37
2022/04/09 02:46:24;;;;;;;8.57;0.77;;;5.40;99.90;;;;;;5095091;28;20511;-37
2022/04/09 02:48:50;;;;;;;6.63;0.50;;;5.40;99.90;;;;;;5094783;28;20027;-36
2022/04/09 02:51:16;;;;;;;3.70;0.70;;;5.30;99.90;;;;;;5093744;28;20032;-36
2022/04/09 02:53:45;;;;;;;5.55;0.88;;;5.30;99.90;;;;;;5095378;28;20030;-36
2022/04/09 02:56:11;;;;;;;4.05;0.60;;;5.30;99.90;;;;;;5094682;28;20514;-36
2022/04/09 02:58:36;;;;;;;3.92;0.50;;;5.30;99.90;;;;;;5094832;28;20024;-36
2022/04/09 03:01:02;;;;;;;8.00;0.93;;;5.20;99.90;;;;;;5092724;28;20040;-38
2022/04/09 03:03:28;;;;;;;1.70;0.57;;;5.20;99.90;;;;;;5094294;28;20094;-38
2022/04/09 03:05:53;;;;;;;4.13;0.70;;;5.20;99.90;;;;;;5093638;28;20081;-38
2022/04/09 03:08:19;;;;;;;11.50;1.35;;;5.20;99.90;;;;;;5095139;28;20032;-38
2022/04/09 03:10:44;;;;;;;20.85;1.92;;;5.30;99.90;;;;;;5094807;28;20032;-36
2022/04/09 03:13:10;;;;;;;11.18;1.63;;;5.40;99.90;;;;;;5095274;28;20517;-36
2022/04/09 03:15:35;;;;;;;13.65;1.63;;;5.50;99.90;;;;;;5092937;28;20032;-39
2022/04/09 03:18:01;;;;;;;11.00;1.10;;;5.40;99.90;;;;;;5093527;28;20093;-36
2022/04/09 03:20:27;;;;;;;8.15;1.25;;;5.40;99.90;;;;;;5095115;28;20016;-36
2022/04/09 03:22:53;;;;;;;6.97;1.13;;;5.30;99.90;;;;;;5095025;28;20016;-38
2022/04/09 03:25:19;;;;;;;3.03;0.65;;;5.20;99.90;;;;;;5093623;28;20077;-45
2022/04/09 03:27:45;;;;;;;6.90;1.75;;;5.10;99.90;;;;;;5094428;28;20103;-37
2022/04/09 03:30:10;;;;;;;11.05;1.00;;;5.00;99.90;;;;;;5092912;28;20032;-39
2022/04/09 03:32:37;;;;;;;10.70;1.17;;;5.00;99.90;;;;;;5094758;28;20028;-36
2022/04/09 03:35:06;;;;;;;4.22;1.20;;;5.10;99.90;;;;;;5093258;28;20059;-37
2022/04/09 03:37:36;;;;;;;2.55;0.93;;;5.10;99.90;;;;;;5091782;28;20032;-38
2022/04/09 03:40:05;;;;;;;4.97;0.57;;;5.20;99.90;;;;;;5093600;28;20501;-38
2022/04/09 03:42:32;;;;;;;3.40;0.60;;;5.10;99.90;;;;;;5094627;28;20027;-38
2022/04/09 03:44:57;;;;;;;5.28;0.90;;;5.10;99.90;;;;;;5094480;28;20016;-37
2022/04/09 03:47:23;;;;;;;14.60;1.15;;;5.20;99.90;;;;;;5093622;28;20030;-38
2022/04/09 03:49:49;;;;;;;12.05;1.98;;;5.20;99.90;;;;;;5094519;28;20055;-38
2022/04/09 03:52:14;;;;;;;4.28;0.82;;;5.20;99.90;;;;;;5094425;28;20024;-37
2022/04/09 03:54:40;;;;;;;4.53;0.95;;;5.30;99.90;;;;;;5093534;28;20102;-37
2022/04/09 03:57:06;;;;;;;14.13;1.95;;;5.20;99.90;;;;;;5093684;28;20032;-36
2022/04/09 03:59:32;;;;;;;11.80;1.00;;;5.30;99.90;;;;;;5094275;28;20387;-38
2022/04/09 04:01:58;;;;;;;4.65;0.77;;;5.30;99.90;;;;;;5093942;28;20364;-42
2022/04/09 04:04:23;;;;;;;9.13;2.08;;;5.40;99.90;;;;;;5093526;28;20027;-39
2022/04/09 04:06:49;;;;;;;10.68;1.08;;;5.40;99.90;;;;;;5091568;28;20024;-38
2022/04/09 04:09:16;;;;;;;2.85;1.13;;;5.50;99.90;;;;;;5093624;28;20028;-38
2022/04/09 04:11:43;;;;;;;4.60;1.02;;;5.50;99.90;;;;;;5091917;28;20188;-38
2022/04/09 04:14:10;;;;;;;3.38;1.30;;;5.50;99.90;;;;;;5092667;28;20084;-51
2022/04/09 04:16:35;;;;;;;1.60;0.45;;;5.40;99.90;;;;;;5093096;28;20032;-36
2022/04/09 04:19:01;;;;;;;4.25;0.60;;;5.40;99.90;;;;;;5092849;28;20048;-39
2022/04/09 04:21:27;;;;;;;10.18;0.65;;;5.40;99.90;;;;;;5091822;28;20016;-37
2022/04/09 04:23:52;;;;;;;9.15;0.80;;;5.40;99.90;;;;;;5092934;28;20024;-37
2022/04/09 04:26:18;;;;;;;9.18;1.13;;;5.40;99.90;;;;;;5093472;28;20036;-38
2022/04/09 04:28:48;;;;;;;5.88;1.00;;;5.40;99.90;;;;;;5093785;28;20019;-37
2022/04/09 04:31:17;;;;;;;5.85;1.25;;;5.40;99.90;;;;;;5091555;28;20124;-37
2022/04/09 04:33:43;;;;;;;9.07;0.63;;;5.40;99.90;;;;;;5076977;28;20055;-37
2022/04/09 04:36:09;;;;;;;3.60;0.70;;;5.40;99.90;;;;;;5091296;28;20063;-37
2022/04/09 04:38:34;;;;;;;4.72;0.57;;;5.50;99.90;;;;;;5093591;28;20016;-38
2022/04/09 04:41:02;;;;;;;5.20;1.17;;;5.50;99.90;;;;;;5093448;28;20470;-38
2022/04/09 04:43:27;;;;;;;11.23;2.95;;;5.60;99.90;;;;;;5091704;28;20057;-37
2022/04/09 04:45:53;;;;;;;10.65;1.05;;;5.70;99.90;;;;;;5092430;28;20020;-37
2022/04/09 04:48:21;;;;;;;10.55;1.38;;;5.70;99.90;;;;;;5091658;28;20026;-37
2022/04/09 04:50:47;;;;;;;4.38;1.02;;;5.70;99.90;;;;;;5093338;28;20123;-37
2022/04/09 04:53:13;;;;;;;6.07;1.35;;;5.70;99.90;;;;;;5092821;28;20059;-37
2022/04/09 04:55:39;;;;;;;9.77;1.17;;;5.60;99.90;;;;;;5092750;28;20433;-41
2022/04/09 04:58:04;;;;;;;8.70;1.00;;;5.60;99.90;;;;;;5089083;28;20043;-38
2022/04/09 05:00:31;;;;;;;8.40;1.40;;;5.70;99.90;;;;;;5093355;28;20032;-41
2022/04/09 05:02:58;;;;;;;10.93;0.60;;;5.70;99.90;;;;;;5092847;28;20349;-39
2022/04/09 05:05:23;;;;;;;6.80;1.45;;;5.80;99.90;;;;;;5092140;28;20099;-38
2022/04/09 05:07:51;;;;;;;8.43;1.35;;;5.80;99.90;;;;;;5092138;28;20106;-37
2022/04/09 05:10:24;;;;;;;5.82;1.38;;;5.80;99.90;;;;;;5092331;28;20490;-38
2022/04/09 05:12:51;;;;;;;4.45;1.00;;;5.80;99.90;;;;;;5092107;28;20028;-37
2022/04/09 05:15:18;;;;;;;8.52;1.30;;;5.80;99.90;;;;;;5093151;28;20024;-36
2022/04/09 05:17:44;;;;;;;13.68;1.25;;;5.80;99.90;;;;;;5092966;28;20021;-34
2022/04/09 05:20:12;;;;;;;4.90;1.30;;;5.80;99.90;;;;;;5093189;28;20028;-37
2022/04/09 05:22:41;;;;;;;6.43;1.55;;;5.80;99.90;;;;;;5091736;28;20052;-43
2022/04/09 05:25:08;;;;;;;5.60;1.20;;;5.80;99.90;;;;;;5095152;28;20062;-35
2022/04/09 05:27:34;;;;;;;14.90;2.17;;;5.80;99.90;;;;;;5087302;28;20066;-37
2022/04/09 05:30:00;;;;;;;15.07;1.60;;;5.80;99.90;;;;;;5087293;28;20024;-37
2022/04/09 05:32:25;;;;;;;2.63;0.95;;;5.90;99.90;;;;;;5096151;28;20028;-41
2022/04/09 05:34:51;;;;;;;6.43;0.95;;;6.00;99.90;;;;;;5096580;28;20129;-35
2022/04/09 05:37:16;;;;;;;15.90;1.88;;;6.00;99.90;;;;;;5095988;28;20031;-36
2022/04/09 05:39:43;;;;;;;9.98;1.15;;;6.00;99.90;;;;;;5095813;28;20020;-36
2022/04/09 05:42:10;;;;;;;5.20;1.35;;;6.10;99.90;;;;;;5096287;28;20055;-36
2022/04/09 05:44:36;;;;;;;7.30;1.70;;;6.20;99.90;;;;;;5095952;28;20032;-36
2022/04/09 05:47:01;;;;;;;13.68;1.90;;;6.20;99.90;;;;;;5096083;28;20072;-38
2022/04/09 05:49:27;;;;;;;14.20;1.30;;;6.20;99.90;;;;;;5095423;28;20044;-39
2022/04/09 05:51:53;;;;;;;7.47;0.98;;;6.10;99.90;;;;;;5095912;28;20581;-37
2022/04/09 05:54:18;;;;;;;8.02;1.38;;;6.10;99.90;;;;;;5093874;28;20039;-38
2022/04/09 05:56:44;;;;;;;10.18;1.83;;;6.10;99.90;;;;;;5094194;28;20036;-37
2022/04/09 05:59:10;;;;;;;5.50;1.10;;;6.10;99.90;;;;;;5095399;28;20538;-37
2022/04/09 06:01:35;;;;;;;6.30;1.73;;;6.20;99.90;;;;;;5096868;28;20027;-38
2022/04/09 06:04:01;;;;;;;9.38;1.33;;;6.20;99.90;;;;;;5078093;28;20039;-40
2022/04/09 06:06:27;;;;;;;9.50;1.88;;;6.40;99.90;;;;;;5095843;28;20102;-36
2022/04/09 06:08:53;;;;;;;9.52;1.35;;;6.40;99.90;;;;;;5109869;28;20545;-36
2022/04/09 06:11:19;;;;;;;5.88;1.73;;;6.50;99.90;;;;;;5095975;28;20028;-37
2022/04/09 06:13:45;;;;;;;6.18;1.20;;;6.50;99.90;;;;;;5095510;28;20031;-36
2022/04/09 06:16:11;;;;;;;10.05;1.45;;;6.60;99.90;;;;;;5095436;28;20024;-37
2022/04/09 06:18:38;;;;;;;5.90;0.90;;;6.60;99.90;;;;;;5090641;28;20555;-36
2022/04/09 06:21:07;;;;;;;4.38;0.75;;;6.60;99.90;;;;;;5093807;28;20108;-37
2022/04/09 06:23:33;;;;;;;3.88;0.90;;;6.70;99.90;;;;;;5093794;28;20468;-37
2022/04/09 06:25:58;;;;;;;6.72;0.90;;;6.90;99.90;;;;;;5094643;28;20074;-37
2022/04/09 06:28:24;;;;;;;7.30;1.00;;;7.00;99.90;;;;;;5094245;28;20472;-37
2022/04/09 06:30:51;;;;;;;4.97;0.98;;;7.20;99.90;;;;;;5095020;28;20488;-38
2022/04/09 06:33:17;;;;;;;5.82;1.30;;;7.30;99.90;;;;;;5094827;28;20036;-38
2022/04/09 06:35:43;;;;;;;11.73;1.23;;;7.40;99.90;;;;;;5093859;28;20514;-39
2022/04/09 06:38:08;;;;;;;17.52;2.28;;;7.30;99.90;;;;;;5095408;28;20103;-36
2022/04/09 06:40:34;;;;;;;11.13;1.45;;;7.30;99.90;;;;;;5093441;28;20024;-37
2022/04/09 06:43:00;;;;;;;12.13;1.23;;;7.40;99.90;;;;;;5092721;28;20159;-38
2022/04/09 06:45:26;;;;;;;9.80;0.88;;;7.50;99.90;;;;;;5094274;28;20027;-37
2022/04/09 06:47:52;;;;;;;5.57;1.35;;;7.50;99.90;;;;;;5094678;28;20029;-36
2022/04/09 06:50:18;;;;;;;9.70;1.13;;;7.60;99.90;;;;;;5096411;28;20095;-37
2022/04/09 06:52:45;;;;;;;9.95;2.88;;;7.60;99.90;;;;;;5094046;28;20551;-36
2022/04/09 06:55:10;;;;;;;3.13;0.63;;;7.40;99.90;;;;;;5095241;28;20107;-32
2022/04/09 06:57:38;;;;;;;4.40;1.40;;;7.40;99.90;;;;;;5094218;28;20128;-38
2022/04/09 07:00:06;;;;;;;7.20;0.98;;;7.30;99.90;;;;;;5094628;28;20107;-44
2022/04/09 07:02:32;;;;;;;;;;;7.20;99.90;;;;;;5103429;28;20022;-36
2022/04/09 07:04:58;;;;;;;16.05;1.42;;;7.10;99.90;;;;;;5094799;28;19998;-37
2022/04/09 07:07:25;;;;;;;2.70;1.08;;;7.20;99.90;;;;;;5094734;28;20103;-36
2022/04/09 07:09:55;;;;;;;8.20;1.15;;;7.20;99.90;;;;;;5093915;28;20024;-37
2022/04/09 07:12:22;;;;;;;13.52;1.05;;;7.10;99.90;;;;;;5093287;28;20047;-36
2022/04/09 07:14:48;;;;;;;7.20;1.85;;;7.10;99.90;;;;;;5094660;28;20024;-37
2022/04/09 07:17:24;;;;;;;6.28;1.02;;;7.30;99.90;;;;;;5094783;28;20107;-37
2022/04/09 07:19:50;;;;;;;3.85;0.30;;;7.40;99.90;;;;;;5092560;28;20047;-38
2022/04/09 07:22:16;;;;;;;5.05;0.52;;;7.50;99.90;;;;;;5093035;28;20024;-37
2022/04/09 07:24:41;;;;;;;2.15;0.60;;;7.30;99.90;;;;;;5093709;28;20444;-38
2022/04/09 07:27:07;;;;;;;6.60;1.48;;;7.10;99.90;;;;;;5093869;28;20057;-37
2022/04/09 07:29:32;;;;;;;3.25;0.75;;;7.20;99.90;;;;;;5092572;28;20043;-37
2022/04/09 07:31:58;;;;;;;5.70;0.50;;;7.10;99.90;;;;;;5093324;28;20077;-35
2022/04/09 07:34:23;;;;;;;1.48;0.50;;;7.10;99.90;;;;;;5094971;28;20468;-37
2022/04/09 07:36:49;;;;;;;6.95;1.67;;;7.10;99.90;;;;;;5090128;28;20499;-37
2022/04/09 07:39:15;;;;;;;5.70;1.25;;;7.30;99.90;;;;;;5091037;28;20027;-37
2022/04/09 07:41:41;;;;;;;4.15;0.60;;;7.40;99.90;;;;;;5089683;28;20019;-37
2022/04/09 07:44:06;;;;;;;6.95;0.70;;;7.60;99.90;;;;;;5093274;28;20024;-37
2022/04/09 07:46:32;;;;;;;9.60;0.85;;;7.90;99.90;;;;;;5090548;28;20068;-37
2022/04/09 07:48:58;;;;;;;5.13;1.00;;;7.90;99.90;;;;;;5093272;28;20472;-37
2022/04/09 07:51:23;;;;;;;8.02;0.95;;;8.00;99.90;;;;;;5094547;28;20035;-38
2022/04/09 07:53:49;;;;;;;6.30;1.08;;;8.10;99.90;;;;;;5093226;28;20036;-38
2022/04/09 07:56:16;;;;;;;4.90;0.73;;;8.10;99.90;;;;;;5092420;28;20471;-36
2022/04/09 07:58:43;;;;;;;7.45;0.70;;;8.20;99.90;;;;;;5092738;28;20032;-39
2022/04/09 08:01:09;;;;;;;3.20;0.93;;;8.20;99.90;;;;;;5091995;28;20066;-54
2022/04/09 08:03:34;;;;;;;5.13;0.50;;;8.40;99.90;;;;;;5092580;28;20039;-39
2022/04/09 08:06:00;;;;;;;11.18;1.23;;;8.50;99.90;;;;;;5093311;28;20554;-38
2022/04/09 08:08:26;;;;;;;7.72;1.33;;;8.80;99.90;;;;;;5092516;28;20518;-38
2022/04/09 08:10:51;;;;;;;8.18;0.73;;;8.90;99.90;;;;;;5091797;28;20035;-39
2022/04/09 08:13:18;;;;;;;4.57;1.00;;;9.00;99.90;;;;;;5092469;28;20020;-37
2022/04/09 08:15:44;;;;;;;8.10;1.08;;;8.90;99.90;;;;;;5090312;28;20016;-36
2022/04/09 08:18:11;;;;;;;15.05;1.38;;;8.70;99.90;;;;;;5091603;28;20064;-37
2022/04/09 08:20:37;;;;;;;1.80;0.93;;;8.50;99.90;;;;;;5091816;28;20483;-38
2022/04/09 08:23:03;;;;;;;5.45;0.90;;;8.50;99.90;;;;;;5091319;28;20100;-32
2022/04/09 08:25:29;;;;;;;2.80;0.88;;;8.50;99.90;;;;;;5090808;28;20467;-36
2022/04/09 08:27:55;;;;;;;11.63;1.35;;;8.60;99.90;;;;;;5090437;28;20035;-38
2022/04/09 08:30:22;;;;;;;5.93;0.93;;;8.60;99.90;;;;;;5092431;28;20024;-38
2022/04/09 08:32:49;;;;;;;9.52;1.63;;;8.70;99.90;;;;;;5098046;28;20467;-36
2022/04/09 08:35:16;;;;;;;4.45;0.63;;;8.80;99.90;;;;;;5093950;28;20476;-37
2022/04/09 08:37:41;;;;;;;9.07;1.02;;;8.80;99.90;;;;;;5090777;28;20369;-36
2022/04/09 08:40:12;;;;;;;5.00;0.80;;;8.70;99.90;;;;;;5090418;28;20034;-37
2022/04/09 08:42:37;;;;;;;7.45;1.85;;;8.50;99.90;;;;;;5078234;28;20036;-39
2022/04/09 08:45:03;;;;;;;9.65;1.08;;;8.30;99.90;;;;;;5087711;28;20035;-36
2022/04/09 08:47:30;;;;;;;7.07;1.30;;;7.90;99.90;;;;;;5087617;28;20024;-35
2022/04/09 08:49:56;;;;;;;3.63;0.73;;;7.90;99.90;;;;;;5089995;28;20089;-35
2022/04/09 08:52:22;;;;;;;2.67;1.17;;;8.10;99.90;;;;;;5091025;28;20036;-36
2022/04/09 08:54:48;;;;;;;9.50;0.80;;;8.20;99.90;;;;;;5088879;28;20468;-36
2022/04/09 08:57:14;;;;;;;9.77;1.23;;;8.50;99.90;;;;;;5091929;28;20024;-43
2022/04/09 08:59:40;;;;;;;6.63;0.88;;;8.90;99.90;;;;;;5093287;28;20027;-46
2022/04/09 09:02:06;;;;;;;8.40;1.27;;;9.20;99.90;;;;;;5092274;28;20020;-41
2022/04/09 09:04:33;;;;;;;5.75;1.02;;;9.60;99.90;;;;;;5092462;28;20043;-39
2022/04/09 09:07:17;;;;;;;6.30;0.90;;;9.90;99.90;;;;;;5092370;28;20020;-39
2022/04/09 09:09:43;;;;;;;5.32;1.00;;;9.50;99.90;;;;;;5093483;28;20089;-37
2022/04/09 09:12:10;;;;;;;9.43;1.13;;;8.60;99.90;;;;;;5091466;28;20438;-42
2022/04/09 09:14:36;;;;;;;1.90;0.60;;;7.50;99.90;;;;;;5091232;28;20120;-39
2022/04/09 09:17:03;;;;;;;1.33;0.50;;;6.70;99.90;;;;;;5091713;28;20471;-39
2022/04/09 09:19:48;;;;;;;2.63;0.40;;;6.40;99.90;;;;;;5098486;28;20499;-37
2022/04/09 09:22:15;;;;;;;6.32;0.93;;;6.30;99.90;;;;;;5083514;28;20094;-43
2022/04/09 09:24:41;;;;;;;3.92;0.55;;;6.20;99.90;;;;;;5076571;28;20032;-36
2022/04/09 09:27:07;;;;;;;4.15;0.85;;;6.20;99.90;;;;;;5089143;28;20043;-34
2022/04/09 09:29:34;;;;;;;6.10;0.38;;;6.20;99.90;;;;;;5091883;28;20104;-36
2022/04/09 09:32:05;;;;;;;1.50;0.40;;;6.30;99.90;;;;;;5091166;28;20475;-34
2022/04/09 09:34:31;;;;;;;4.30;1.00;;;6.40;99.90;;;;;;5093340;28;20391;-36
2022/04/09 09:36:57;;;;;;;10.73;0.80;;;6.50;99.90;;;;;;5090325;28;20028;-37
2022/04/09 09:39:24;;;;;;;2.03;0.80;;;6.50;99.90;;;;;;5092763;28;20384;-38
2022/04/09 09:41:53;;;;;;;2.97;0.95;;;6.70;99.90;;;;;;5083675;28;20028;-36
2022/04/09 09:44:26;;;;;;;6.32;0.85;;;7.00;99.90;;;;;;5091376;28;20020;-37
2022/04/09 09:47:03;;;;;;;7.75;0.90;;;7.40;99.90;;;;;;5092255;28;20428;-38
2022/04/09 09:49:35;;;;;;;7.97;0.63;;;7.70;99.90;;;;;;5092987;28;20540;-38
2022/04/09 09:52:03;;;;;;;3.65;0.60;;;8.10;99.90;;;;;;5089899;28;20499;-40
2022/04/09 09:54:29;;;;;;;;;;;8.50;99.90;;;;;;5093395;28;20384;-37
2022/04/09 09:56:55;;;;;;;6.43;1.23;;;8.80;99.90;;;;;;5092545;28;19908;-37
2022/04/09 09:59:22;;;;;;;3.78;1.10;;;9.00;99.90;;;;;;5093026;28;20020;-37
2022/04/09 10:01:48;;;;;;;7.50;1.80;;;8.90;99.90;;;;;;5092208;28;20016;-37
2022/04/09 10:04:14;;;;;;;8.95;1.27;;;8.80;99.90;;;;;;5090842;28;20496;-37
2022/04/09 10:06:43;;;;;;;5.72;0.98;;;8.40;99.90;;;;;;5088261;28;20055;-38
2022/04/09 10:09:11;;;;;;;3.45;1.40;;;8.70;99.90;;;;;;5089781;28;20028;-38
2022/04/09 10:11:47;;;;;;;8.50;1.52;;;9.20;99.90;;;;;;5095622;28;20046;-38
2022/04/09 10:14:14;;;;;;;10.48;1.30;;;9.70;99.90;;;;;;5111499;28;20383;-38
2022/04/09 10:16:43;;;;;;;11.75;1.17;;;10.10;99.90;;;;;;5110003;28;20075;-38
2022/04/09 10:19:11;;;;;;;6.60;1.10;;;10.30;99.90;;;;;;5095559;28;20048;-36
2022/04/09 10:21:39;;;;;;;5.47;0.73;;;10.60;99.90;;;;;;5100930;28;20024;-34
2022/04/09 10:24:13;;;;;;;6.40;1.20;;;10.10;99.90;;;;;;5098726;28;20528;-37
2022/04/09 10:26:39;;;;;;;4.88;1.23;;;9.20;99.90;;;;;;5110892;28;20027;-42
2022/04/09 10:29:08;;;;;;;5.90;1.10;;;8.50;99.90;;;;;;5093354;28;20028;-36
2022/04/09 10:31:36;;;;;;;7.18;1.10;;;8.00;99.90;;;;;;5091871;28;20518;-37
2022/04/09 10:34:04;;;;;;;10.43;0.93;;;7.60;99.90;;;;;;5080086;28;20020;-37
2022/04/09 10:36:44;;;;;;;9.30;1.60;;;7.40;99.90;;;;;;5095371;28;20031;-36
2022/04/09 10:39:25;;;;;;;3.22;1.35;;;7.20;99.90;;;;;;5093996;28;20518;-38
2022/04/09 10:41:51;;;;;;;9.18;1.88;;;7.10;99.90;;;;;;5093993;28;20035;-37
2022/04/09 10:44:44;;;;;;;5.88;1.25;;;7.10;99.90;;;;;;5095660;28;20020;-36
2022/04/09 10:47:13;;;;;;;5.90;1.20;;;7.10;99.90;;;;;;5075765;28;20476;-37
2022/04/09 10:49:39;;;;;;;8.88;0.95;;;7.10;99.90;;;;;;5093380;28;20028;-37
2022/04/09 10:52:05;;;;;;;9.93;1.15;;;7.10;99.90;;;;;;5095830;28;20017;-38
2022/04/09 10:54:31;;;;;;;5.70;0.90;;;7.20;99.90;;;;;;5095341;28;20099;-38
2022/04/09 10:57:07;;;;;;;10.23;1.55;;;7.40;99.90;;;;;;5096314;28;20027;-38
2022/04/09 10:59:34;;;;;;;9.40;1.40;;;7.60;99.90;;;;;;5093335;28;20512;-33
2022/04/09 11:02:00;;;;;;;4.43;0.70;;;8.10;99.90;;;;;;5099872;28;20060;-37
2022/04/09 11:04:32;;;;;;;7.43;1.40;;;8.60;99.90;;;;;;5104236;28;20479;-34
2022/04/09 11:07:08;;;;;;;6.28;1.17;;;9.00;99.90;;;;;;5099211;28;20051;-37
2022/04/09 11:10:01;;;;;;;5.65;0.82;;;9.30;99.90;;;;;;5110201;28;20024;-37
2022/04/09 11:12:31;;;;;;;8.60;1.20;;;9.10;99.90;;;;;;5095653;28;20115;-37
2022/04/09 11:14:57;;;;;;;4.75;1.20;;;8.70;99.90;;;;;;5094148;28;20020;-38
2022/04/09 11:17:37;;;;;;;2.72;0.55;;;8.50;99.90;;;;;;5105591;28;20027;-38
2022/04/09 11:20:17;;;;;;;2.15;0.88;;;8.40;99.90;;;;;;5098034;28;20075;-39
2022/04/09 11:22:51;;;;;;;3.55;0.60;;;8.30;99.90;;;;;;5094825;28;20048;-38
2022/04/09 11:25:16;;;;;;;2.13;0.38;;;8.10;99.90;;;;;;5101235;28;20384;-39
2022/04/09 11:27:42;;;;;;;8.15;0.88;;;7.80;99.90;;;;;;5094296;28;20032;-38
2022/04/09 11:30:09;;;;;;;10.02;1.80;;;7.80;99.90;;;;;;5093929;28;20031;-38
2022/04/09 11:32:35;;;;;;;3.42;0.55;;;7.90;99.90;;;;;;5103550;28;20027;-39
2022/04/09 11:35:06;;;;;;;6.03;0.55;;;8.10;99.90;;;;;;5100648;28;20036;-38
2022/04/09 11:37:32;;;;;;;3.15;0.95;;;8.30;99.90;;;;;;5105805;28;20036;-39
2022/04/09 11:40:04;;;;;;;1.85;0.52;;;8.50;99.90;;;;;;5111102;28;20019;-38
2022/04/09 11:42:43;;;;;;;3.72;0.90;;;9.00;99.90;;;;;;5107427;28;20499;-39
2022/04/09 11:45:26;;;;;;;2.33;0.52;;;9.30;99.90;;;;;;5094049;28;20016;-38
2022/04/09 11:47:53;;;;;;;1.27;0.43;;;9.70;99.90;;;;;;5093975;28;20032;-39
2022/04/09 11:50:20;;;;;;;2.17;0.70;;;9.90;99.90;;;;;;5103031;28;20020;-39
2022/04/09 11:52:45;;;;;;;6.97;0.65;;;10.00;99.90;;;;;;5112546;28;20481;-39
2022/04/09 11:55:16;;;;;;;1.33;0.22;;;9.90;99.90;;;;;;5113861;28;20051;-41
2022/04/09 11:57:50;;;;;;;4.63;0.73;;;9.90;99.90;;;;;;5095377;28;20409;-38
2022/04/09 12:00:16;;;;;;;1.60;0.93;;;9.90;99.90;;;;;;5101716;28;20027;-39
2022/04/09 12:02:42;;;;;;;6.55;0.90;;;10.10;99.90;;;;;;5111610;28;20525;-39
2022/04/09 12:05:10;;;;;;;3.78;1.10;;;10.00;99.90;;;;;;5094476;28;20020;-41
2022/04/09 12:07:40;;;;;;;3.92;0.52;;;9.90;99.90;;;;;;5077069;28;20111;-42
2022/04/09 12:10:06;;;;;;;7.03;1.23;;;9.90;99.90;;;;;;5086938;28;20032;-39
2022/04/09 12:12:38;;;;;;;4.35;0.63;;;10.10;99.90;;;;;;5095290;28;20039;-38
2022/04/09 12:15:04;;;;;;;7.38;0.80;;;10.20;99.90;;;;;;5103606;28;20061;-40
2022/04/09 12:17:35;;;;;;;6.47;0.75;;;10.10;99.90;;;;;;5093187;28;20056;-38
2022/04/09 12:20:37;;;;;;;2.05;0.52;;;9.90;99.90;;;;;;5091631;28;20109;-36
2022/04/09 12:23:04;;;;;;;5.15;0.80;;;10.20;99.90;;;;;;5092907;28;20102;-39
2022/04/09 12:25:38;;;;;;;5.63;0.52;;;10.20;99.90;;;;;;5098331;28;20165;-43
2022/04/09 12:28:05;;;;;;;2.03;0.63;;;10.30;99.90;;;;;;5092119;28;20032;-40
2022/04/09 12:30:42;;;;;;;1.33;0.53;;;10.20;99.90;;;;;;5093077;28;20020;-38
2022/04/09 12:33:12;;;;;;;4.37;0.80;;;10.10;99.90;;;;;;5103117;28;20482;-50
2022/04/09 12:35:39;;;;;;;8.90;0.80;;;9.90;99.90;;;;;;5092007;28;20471;-40
2022/04/09 12:38:04;;;;;;;1.42;0.28;;;10.00;99.90;;;;;;5100112;28;20455;-38
2022/04/09 12:40:32;;;;;;;3.42;0.38;;;10.20;99.90;;;;;;5114311;28;20023;-38
2022/04/09 12:42:58;;;;;;;0.68;0.38;;;10.10;99.90;;;;;;5112477;28;20030;-39
2022/04/09 12:45:24;;;;;;;1.08;0.40;;;9.90;99.90;;;;;;5093837;28;20020;-39
2022/04/09 12:48:00;;;;;;;1.67;0.30;;;9.80;99.90;;;;;;5091623;28;20020;-39
2022/04/09 12:50:35;;;;;;;2.30;0.32;;;9.80;99.90;;;;;;5100745;28;20093;-37
2022/04/09 12:53:04;;;;;;;0.22;0.15;;;9.30;99.90;;;;;;5087921;28;20024;-37
2022/04/09 12:55:30;;;;;;;1.45;0.30;;;9.10;99.90;;;;;;5092479;28;20055;-38